Williamsburg, Michigan
Current Conditions -  °F | °C
As of 9:53 PM on Wednesday 22 Oct 2014 (Local Time) from KTVC Reporting Station
Clear Clear  
Wind Chill:   Ceiling: Unl
Heat Index:   Visibility: 10mi
Dew Point: -1°   Wind: 0mph
Humidity: 89%   Direction: NA
Pressure: 30.28"   Gusts: NA
Location:  44.77°N, 85.4°W
Report Text: KTVC 230153Z 00000KT 10SM CLR 01/M01 A3028 RMK AO2 SLP261 LAST AUGMENTED OBS OF DAY UNTIL 11Z T00111006 $
Loading
Personal Weather Stations






























Interactive Weather Map
Tropical Storm Tracking
New forecast layout! Learn more

10-Day Weather Forecast

Advertisements
Track Severe Weather on mobile